Skip Navigation Links
NOAA logo - Click to go to the NOAA homepage
NOAA's National Weather Service
Alaska Aviation Weather Unit
  NWS logo - Click to go to the NWS homepage
Left Navbar Graphic     17 AKDT = 01 GMT

   
NOAA is celebrating 200 years of science, service, and stewardship. Visit the NOAA 200th celebration Web site to learn more.
USA.gov is the U.S. Government's official Web portal to all Federal, state and local government Web resources and services.
Facebook
NWS on Facebook

Important Change Regarding the AAWU Web Presence

 

Over the last several months, the AAWU has been working to navigate its webpages to a nationally supported server. Security, as well as other needs, have necessitated the change.  We have been given an extension for the site changeover while we diligently work at addressing feedback received. As of July 14, 2017, aawu.arh.noaa.gov will be discontinued. The new AAWU web address is weather.gov/aawu. It is now live and will run in-parallel with the old site until it is discontinued on July 14, 2017. Please continue to send any feedback or questions regarding the new webpages to nws.ar.aawu.webauthors@noaa.gov.  Thank you for your patience during this time of transition.
AAWU Home :: Display TAF Add Bookmark
SPECI PAKK 171904Z AUTO 33007G14KT 10SM SCT019 OVC042 00/M01 A2946 RMK
     AO2 FZRANO=

SPECI PAKK 171919Z AUTO 33008KT 10SM BKN023 OVC042 00/M01 A2946 RMK AO2
     FZRANO=

METAR PAKK 171956Z AUTO 34005KT 10SM SCT025 BKN030 OVC047 00/M01 A2946
     RMK AO2 SLP991 T00001011 FZRANO=

METAR PAKK 172056Z AUTO 34007KT 10SM OVC030 00/M01 A2946 RMK AO2 SLP992
     T00001011 51003 FZRANO=

METAR PAKK 172156Z AUTO 34007G14KT 10SM OVC030 01/M01 A2947 RMK AO2
     SLP992 T00061011 FZRANO=

METAR PAKK 172256Z AUTO 33007KT 10SM OVC030 01/M01 A2946 RMK AO2 SLP992
     T00061011 FZRANO=

METAR PAKK 172356Z AUTO 33008KT 10SM FEW027 BKN039 00/M02 A2946 RMK AO2
     SLP990 T00001017 10011 20000 58002 FZRANO=


NOAA's National Weather Service
Alaska Aviation Weather Unit
6930 Sand Lake Road
Anchorage, AK 99502-1845
Disclaimer
Credits
Glossary
Privacy Policy
About Us
Career Opportunities
Contact AAWU Internet Services Site last modified: April, 17th 2012